sensor_id;sensor_type;location;lat;lon;timestamp;temperature;humidity
14006;DHT22;7078;51.542;7.314;2023-09-19T00:01:28;16.00;99.90
14006;DHT22;7078;51.542;7.314;2023-09-19T00:03:56;16.00;99.90
14006;DHT22;7078;51.542;7.314;2023-09-19T00:06:23;16.00;99.90
14006;DHT22;7078;51.542;7.314;2023-09-19T00:08:52;16.00;99.90
14006;DHT22;7078;51.542;7.314;2023-09-19T00:11:17;15.90;99.90
14006;DHT22;7078;51.542;7.314;2023-09-19T00:13:43;15.90;99.90
14006;DHT22;7078;51.542;7.314;2023-09-19T00:16:10;15.90;99.90
14006;DHT22;7078;51.542;7.314;2023-09-19T00:18:37;15.80;99.90
14006;DHT22;7078;51.542;7.314;2023-09-19T00:21:03;15.80;99.90
14006;DHT22;7078;51.542;7.314;2023-09-19T00:23:30;15.70;99.90
14006;DHT22;7078;51.542;7.314;2023-09-19T00:26:00;15.70;99.90
14006;DHT22;7078;51.542;7.314;2023-09-19T00:28:26;15.70;99.90
14006;DHT22;7078;51.542;7.314;2023-09-19T00:30:52;15.60;99.90
14006;DHT22;7078;51.542;7.314;2023-09-19T00:33:19;15.60;99.90
14006;DHT22;7078;51.542;7.314;2023-09-19T00:35:52;15.60;99.90
14006;DHT22;7078;51.542;7.314;2023-09-19T00:38:19;15.60;99.90
14006;DHT22;7078;51.542;7.314;2023-09-19T00:40:50;15.50;99.90
14006;DHT22;7078;51.542;7.314;2023-09-19T00:43:19;15.40;99.90
14006;DHT22;7078;51.542;7.314;2023-09-19T00:45:46;15.50;99.90
14006;DHT22;7078;51.542;7.314;2023-09-19T00:48:14;15.50;99.90
14006;DHT22;7078;51.542;7.314;2023-09-19T00:50:41;15.50;99.90
14006;DHT22;7078;51.542;7.314;2023-09-19T00:53:09;15.50;99.90
14006;DHT22;7078;51.542;7.314;2023-09-19T00:55:35;15.60;99.90
14006;DHT22;7078;51.542;7.314;2023-09-19T00:58:03;15.40;99.90
14006;DHT22;7078;51.542;7.314;2023-09-19T01:00:29;15.40;99.90
14006;DHT22;7078;51.542;7.314;2023-09-19T01:02:55;15.30;99.90
14006;DHT22;7078;51.542;7.314;2023-09-19T01:05:21;15.30;99.90
14006;DHT22;7078;51.542;7.314;2023-09-19T01:07:46;15.30;99.90
14006;DHT22;7078;51.542;7.314;2023-09-19T01:10:17;15.20;99.90
14006;DHT22;7078;51.542;7.314;2023-09-19T01:12:59;15.20;99.90
14006;DHT22;7078;51.542;7.314;2023-09-19T01:18:35;15.20;99.90
14006;DHT22;7078;51.542;7.314;2023-09-19T01:21:15;15.20;99.90
14006;DHT22;7078;51.542;7.314;2023-09-19T01:29:36;15.20;99.90
14006;DHT22;7078;51.542;7.314;2023-09-19T01:32:05;15.10;99.90
14006;DHT22;7078;51.542;7.314;2023-09-19T01:34:48;15.10;99.90
14006;DHT22;7078;51.542;7.314;2023-09-19T01:37:18;15.10;99.90
14006;DHT22;7078;51.542;7.314;2023-09-19T01:40:14;15.10;99.90
14006;DHT22;7078;51.542;7.314;2023-09-19T01:45:52;15.10;99.90
14006;DHT22;7078;51.542;7.314;2023-09-19T01:48:46;15.10;99.90
14006;DHT22;7078;51.542;7.314;2023-09-19T01:51:21;15.00;99.90
14006;DHT22;7078;51.542;7.314;2023-09-19T01:54:03;15.00;99.90
14006;DHT22;7078;51.542;7.314;2023-09-19T01:56:51;15.00;99.90
14006;DHT22;7078;51.542;7.314;2023-09-19T01:59:35;14.90;99.90
14006;DHT22;7078;51.542;7.314;2023-09-19T02:02:03;14.90;99.90
14006;DHT22;7078;51.542;7.314;2023-09-19T02:04:33;14.90;99.90
14006;DHT22;7078;51.542;7.314;2023-09-19T02:07:00;14.90;99.90
14006;DHT22;7078;51.542;7.314;2023-09-19T02:09:26;14.90;99.90
14006;DHT22;7078;51.542;7.314;2023-09-19T02:11:52;14.90;99.90
14006;DHT22;7078;51.542;7.314;2023-09-19T02:14:17;14.90;99.90
14006;DHT22;7078;51.542;7.314;2023-09-19T02:16:45;14.80;99.90
14006;DHT22;7078;51.542;7.314;2023-09-19T02:19:11;14.80;99.90
14006;DHT22;7078;51.542;7.314;2023-09-19T02:21:36;14.80;99.90
14006;DHT22;7078;51.542;7.314;2023-09-19T02:24:02;14.80;99.90
14006;DHT22;7078;51.542;7.314;2023-09-19T02:26:28;14.80;99.90
14006;DHT22;7078;51.542;7.314;2023-09-19T02:28:54;14.70;99.90
14006;DHT22;7078;51.542;7.314;2023-09-19T02:31:19;14.70;99.90
14006;DHT22;7078;51.542;7.314;2023-09-19T02:33:45;14.70;99.90
14006;DHT22;7078;51.542;7.314;2023-09-19T02:36:11;14.70;99.90
14006;DHT22;7078;51.542;7.314;2023-09-19T02:38:37;14.70;99.90
14006;DHT22;7078;51.542;7.314;2023-09-19T02:41:02;14.70;99.90
14006;DHT22;7078;51.542;7.314;2023-09-19T02:43:28;14.60;99.90
14006;DHT22;7078;51.542;7.314;2023-09-19T02:45:54;14.60;99.90
14006;DHT22;7078;51.542;7.314;2023-09-19T02:48:20;14.60;99.90
14006;DHT22;7078;51.542;7.314;2023-09-19T02:50:49;14.50;99.90
14006;DHT22;7078;51.542;7.314;2023-09-19T02:53:15;14.60;99.90
14006;DHT22;7078;51.542;7.314;2023-09-19T02:55:41;14.50;99.90
14006;DHT22;7078;51.542;7.314;2023-09-19T02:58:07;14.60;99.90
14006;DHT22;7078;51.542;7.314;2023-09-19T03:00:39;14.50;99.90
14006;DHT22;7078;51.542;7.314;2023-09-19T03:03:07;14.50;99.90
14006;DHT22;7078;51.542;7.314;2023-09-19T03:05:34;14.50;99.90
14006;DHT22;7078;51.542;7.314;2023-09-19T03:08:00;14.50;99.90
14006;DHT22;7078;51.542;7.314;2023-09-19T03:10:26;14.50;99.90
14006;DHT22;7078;51.542;7.314;2023-09-19T03:12:53;14.50;99.90
14006;DHT22;7078;51.542;7.314;2023-09-19T03:15:19;14.50;99.90
14006;DHT22;7078;51.542;7.314;2023-09-19T03:17:46;14.50;99.90
14006;DHT22;7078;51.542;7.314;2023-09-19T03:20:13;14.50;99.90
14006;DHT22;7078;51.542;7.314;2023-09-19T03:22:42;14.50;99.90
14006;DHT22;7078;51.542;7.314;2023-09-19T03:25:08;14.50;99.90
14006;DHT22;7078;51.542;7.314;2023-09-19T03:27:35;14.50;99.90
14006;DHT22;7078;51.542;7.314;2023-09-19T03:30:00;14.50;99.90
14006;DHT22;7078;51.542;7.314;2023-09-19T03:32:26;14.50;99.90
14006;DHT22;7078;51.542;7.314;2023-09-19T03:34:52;14.50;99.90
14006;DHT22;7078;51.542;7.314;2023-09-19T03:37:17;14.50;99.90
14006;DHT22;7078;51.542;7.314;2023-09-19T03:39:43;14.50;99.90
14006;DHT22;7078;51.542;7.314;2023-09-19T03:42:08;14.60;99.90
14006;DHT22;7078;51.542;7.314;2023-09-19T03:44:35;14.50;99.90
14006;DHT22;7078;51.542;7.314;2023-09-19T03:47:00;14.50;99.90
14006;DHT22;7078;51.542;7.314;2023-09-19T03:49:26;14.50;99.90
14006;DHT22;7078;51.542;7.314;2023-09-19T03:51:51;14.50;99.90
14006;DHT22;7078;51.542;7.314;2023-09-19T03:54:17;14.40;99.90
14006;DHT22;7078;51.542;7.314;2023-09-19T03:56:44;14.40;99.90
14006;DHT22;7078;51.542;7.314;2023-09-19T03:59:11;14.50;99.90
14006;DHT22;7078;51.542;7.314;2023-09-19T04:01:37;14.40;99.90
14006;DHT22;7078;51.542;7.314;2023-09-19T04:04:03;14.30;99.90
14006;DHT22;7078;51.542;7.314;2023-09-19T04:06:36;14.30;99.90
14006;DHT22;7078;51.542;7.314;2023-09-19T04:09:03;14.30;99.90
14006;DHT22;7078;51.542;7.314;2023-09-19T04:11:29;14.30;99.90
14006;DHT22;7078;51.542;7.314;2023-09-19T04:13:56;14.30;99.90
14006;DHT22;7078;51.542;7.314;2023-09-19T04:16:21;14.30;99.90
14006;DHT22;7078;51.542;7.314;2023-09-19T04:18:47;14.30;99.90
14006;DHT22;7078;51.542;7.314;2023-09-19T04:21:12;14.30;99.90
14006;DHT22;7078;51.542;7.314;2023-09-19T04:23:38;14.30;99.90
14006;DHT22;7078;51.542;7.314;2023-09-19T04:26:03;14.30;99.90
14006;DHT22;7078;51.542;7.314;2023-09-19T04:28:30;14.30;99.90
14006;DHT22;7078;51.542;7.314;2023-09-19T04:30:56;14.30;99.90
14006;DHT22;7078;51.542;7.314;2023-09-19T04:33:23;14.30;99.90
14006;DHT22;7078;51.542;7.314;2023-09-19T04:35:51;14.30;99.90
14006;DHT22;7078;51.542;7.314;2023-09-19T04:38:18;14.30;99.90
14006;DHT22;7078;51.542;7.314;2023-09-19T04:40:45;14.30;99.90
14006;DHT22;7078;51.542;7.314;2023-09-19T04:43:10;14.30;99.90
14006;DHT22;7078;51.542;7.314;2023-09-19T04:45:38;14.30;99.90
14006;DHT22;7078;51.542;7.314;2023-09-19T04:48:05;14.30;99.90
14006;DHT22;7078;51.542;7.314;2023-09-19T04:50:32;14.30;99.90
14006;DHT22;7078;51.542;7.314;2023-09-19T04:52:57;14.20;99.90
14006;DHT22;7078;51.542;7.314;2023-09-19T04:55:23;14.20;99.90
14006;DHT22;7078;51.542;7.314;2023-09-19T04:57:52;14.20;99.90
14006;DHT22;7078;51.542;7.314;2023-09-19T05:00:21;14.20;99.90
14006;DHT22;7078;51.542;7.314;2023-09-19T05:02:54;14.20;99.90
14006;DHT22;7078;51.542;7.314;2023-09-19T05:05:20;14.20;99.90
14006;DHT22;7078;51.542;7.314;2023-09-19T05:07:48;14.20;99.90
14006;DHT22;7078;51.542;7.314;2023-09-19T05:10:13;14.20;99.90
14006;DHT22;7078;51.542;7.314;2023-09-19T05:12:40;14.20;99.90
14006;DHT22;7078;51.542;7.314;2023-09-19T05:15:06;14.30;99.90
14006;DHT22;7078;51.542;7.314;2023-09-19T05:17:33;14.20;99.90
14006;DHT22;7078;51.542;7.314;2023-09-19T05:19:59;14.30;99.90
14006;DHT22;7078;51.542;7.314;2023-09-19T05:22:37;14.30;99.90
14006;DHT22;7078;51.542;7.314;2023-09-19T05:25:05;14.30;99.90
14006;DHT22;7078;51.542;7.314;2023-09-19T05:27:31;14.30;99.90
14006;DHT22;7078;51.542;7.314;2023-09-19T05:29:56;14.30;99.90
14006;DHT22;7078;51.542;7.314;2023-09-19T05:32:22;14.30;99.90
14006;DHT22;7078;51.542;7.314;2023-09-19T05:34:47;14.30;99.90
14006;DHT22;7078;51.542;7.314;2023-09-19T05:37:13;14.40;99.90
14006;DHT22;7078;51.542;7.314;2023-09-19T05:39:41;14.30;99.90
14006;DHT22;7078;51.542;7.314;2023-09-19T05:42:07;14.30;99.90
14006;DHT22;7078;51.542;7.314;2023-09-19T05:44:33;14.30;99.90
14006;DHT22;7078;51.542;7.314;2023-09-19T05:46:59;14.30;99.90
14006;DHT22;7078;51.542;7.314;2023-09-19T05:49:25;14.40;99.90
14006;DHT22;7078;51.542;7.314;2023-09-19T05:51:50;14.40;99.90
14006;DHT22;7078;51.542;7.314;2023-09-19T05:54:19;14.50;99.90
14006;DHT22;7078;51.542;7.314;2023-09-19T05:56:45;14.60;99.90
14006;DHT22;7078;51.542;7.314;2023-09-19T05:59:12;14.50;99.90
14006;DHT22;7078;51.542;7.314;2023-09-19T06:01:42;14.50;99.90
14006;DHT22;7078;51.542;7.314;2023-09-19T06:04:07;14.60;99.90
14006;DHT22;7078;51.542;7.314;2023-09-19T06:06:33;14.60;99.90
14006;DHT22;7078;51.542;7.314;2023-09-19T06:09:02;14.60;99.90
14006;DHT22;7078;51.542;7.314;2023-09-19T06:11:27;14.70;99.90
14006;DHT22;7078;51.542;7.314;2023-09-19T06:13:54;14.70;99.90
14006;DHT22;7078;51.542;7.314;2023-09-19T06:16:20;14.80;99.90
14006;DHT22;7078;51.542;7.314;2023-09-19T06:18:46;14.80;99.90
14006;DHT22;7078;51.542;7.314;2023-09-19T06:21:11;14.80;99.90
14006;DHT22;7078;51.542;7.314;2023-09-19T06:23:37;14.90;99.90
14006;DHT22;7078;51.542;7.314;2023-09-19T06:26:03;14.90;99.90
14006;DHT22;7078;51.542;7.314;2023-09-19T06:28:32;14.90;99.90
14006;DHT22;7078;51.542;7.314;2023-09-19T06:30:58;14.90;99.90
14006;DHT22;7078;51.542;7.314;2023-09-19T06:33:25;15.00;99.90
14006;DHT22;7078;51.542;7.314;2023-09-19T06:35:50;15.00;99.90
14006;DHT22;7078;51.542;7.314;2023-09-19T06:38:18;15.10;99.90
14006;DHT22;7078;51.542;7.314;2023-09-19T06:40:44;15.10;99.90
14006;DHT22;7078;51.542;7.314;2023-09-19T06:43:10;15.10;99.90
14006;DHT22;7078;51.542;7.314;2023-09-19T06:45:36;15.10;99.90
14006;DHT22;7078;51.542;7.314;2023-09-19T06:48:02;15.20;99.90
14006;DHT22;7078;51.542;7.314;2023-09-19T06:50:28;15.20;99.90
14006;DHT22;7078;51.542;7.314;2023-09-19T06:52:56;15.20;99.90
14006;DHT22;7078;51.542;7.314;2023-09-19T06:55:24;15.30;99.90
14006;DHT22;7078;51.542;7.314;2023-09-19T06:57:52;15.30;99.90
14006;DHT22;7078;51.542;7.314;2023-09-19T07:00:19;15.30;99.90
14006;DHT22;7078;51.542;7.314;2023-09-19T07:03:00;15.30;99.90
14006;DHT22;7078;51.542;7.314;2023-09-19T07:05:29;15.30;99.90
14006;DHT22;7078;51.542;7.314;2023-09-19T07:07:56;15.40;99.90
14006;DHT22;7078;51.542;7.314;2023-09-19T07:10:24;15.40;99.90
14006;DHT22;7078;51.542;7.314;2023-09-19T07:13:05;15.40;99.90
14006;DHT22;7078;51.542;7.314;2023-09-19T07:15:36;15.40;99.90
14006;DHT22;7078;51.542;7.314;2023-09-19T07:18:05;15.40;99.90
14006;DHT22;7078;51.542;7.314;2023-09-19T07:20:31;15.40;99.90
14006;DHT22;7078;51.542;7.314;2023-09-19T07:22:58;15.50;99.90
14006;DHT22;7078;51.542;7.314;2023-09-19T07:25:27;15.60;99.90
14006;DHT22;7078;51.542;7.314;2023-09-19T07:27:55;15.60;99.90
14006;DHT22;7078;51.542;7.314;2023-09-19T07:30:21;15.60;99.90
14006;DHT22;7078;51.542;7.314;2023-09-19T07:32:48;15.80;99.90
14006;DHT22;7078;51.542;7.314;2023-09-19T07:35:13;15.70;99.90
14006;DHT22;7078;51.542;7.314;2023-09-19T07:37:40;15.70;99.90
14006;DHT22;7078;51.542;7.314;2023-09-19T07:40:06;15.70;99.90
14006;DHT22;7078;51.542;7.314;2023-09-19T07:42:34;15.90;99.90
14006;DHT22;7078;51.542;7.314;2023-09-19T07:45:01;15.90;99.90
14006;DHT22;7078;51.542;7.314;2023-09-19T07:47:26;15.90;99.90
14006;DHT22;7078;51.542;7.314;2023-09-19T07:49:53;15.90;99.90
14006;DHT22;7078;51.542;7.314;2023-09-19T07:52:18;15.90;99.90
14006;DHT22;7078;51.542;7.314;2023-09-19T07:54:44;16.00;99.90
14006;DHT22;7078;51.542;7.314;2023-09-19T07:57:10;16.00;99.90
14006;DHT22;7078;51.542;7.314;2023-09-19T07:59:37;16.20;99.90
14006;DHT22;7078;51.542;7.314;2023-09-19T08:02:04;15.90;99.90
14006;DHT22;7078;51.542;7.314;2023-09-19T08:04:30;16.10;99.90
14006;DHT22;7078;51.542;7.314;2023-09-19T08:06:57;16.20;99.90
14006;DHT22;7078;51.542;7.314;2023-09-19T08:09:26;16.20;99.90
14006;DHT22;7078;51.542;7.314;2023-09-19T08:11:51;16.30;99.90
14006;DHT22;7078;51.542;7.314;2023-09-19T08:14:17;16.20;99.90
14006;DHT22;7078;51.542;7.314;2023-09-19T08:16:43;16.20;99.90
14006;DHT22;7078;51.542;7.314;2023-09-19T08:19:10;16.40;99.90
14006;DHT22;7078;51.542;7.314;2023-09-19T08:21:36;16.40;99.90
14006;DHT22;7078;51.542;7.314;2023-09-19T08:24:02;16.60;99.90
14006;DHT22;7078;51.542;7.314;2023-09-19T08:26:30;16.50;99.90
14006;DHT22;7078;51.542;7.314;2023-09-19T08:28:57;16.60;99.90
14006;DHT22;7078;51.542;7.314;2023-09-19T08:31:22;16.60;99.90
14006;DHT22;7078;51.542;7.314;2023-09-19T08:33:49;16.70;99.90
14006;DHT22;7078;51.542;7.314;2023-09-19T08:36:16;16.60;99.90
14006;DHT22;7078;51.542;7.314;2023-09-19T08:38:42;16.60;99.90
14006;DHT22;7078;51.542;7.314;2023-09-19T08:41:08;16.60;99.90
14006;DHT22;7078;51.542;7.314;2023-09-19T08:43:34;16.60;99.90
14006;DHT22;7078;51.542;7.314;2023-09-19T08:46:11;16.70;99.90
14006;DHT22;7078;51.542;7.314;2023-09-19T08:48:47;16.80;99.90
14006;DHT22;7078;51.542;7.314;2023-09-19T08:51:30;16.90;99.90
14006;DHT22;7078;51.542;7.314;2023-09-19T08:54:06;16.90;99.90
14006;DHT22;7078;51.542;7.314;2023-09-19T08:56:32;17.10;99.90
14006;DHT22;7078;51.542;7.314;2023-09-19T08:59:07;17.10;99.90
14006;DHT22;7078;51.542;7.314;2023-09-19T09:01:33;17.00;99.90
14006;DHT22;7078;51.542;7.314;2023-09-19T09:04:01;17.20;99.90
14006;DHT22;7078;51.542;7.314;2023-09-19T09:06:28;17.20;99.90
14006;DHT22;7078;51.542;7.314;2023-09-19T09:08:54;17.20;99.90
14006;DHT22;7078;51.542;7.314;2023-09-19T09:11:20;17.30;99.90
14006;DHT22;7078;51.542;7.314;2023-09-19T09:13:47;17.20;99.90
14006;DHT22;7078;51.542;7.314;2023-09-19T09:16:13;17.40;99.90
14006;DHT22;7078;51.542;7.314;2023-09-19T09:18:40;17.60;99.90
14006;DHT22;7078;51.542;7.314;2023-09-19T09:21:06;17.30;99.90
14006;DHT22;7078;51.542;7.314;2023-09-19T09:23:32;17.50;99.90
14006;DHT22;7078;51.542;7.314;2023-09-19T09:25:58;17.30;99.90
14006;DHT22;7078;51.542;7.314;2023-09-19T09:28:32;17.20;99.90
14006;DHT22;7078;51.542;7.314;2023-09-19T09:30:59;17.50;99.90
14006;DHT22;7078;51.542;7.314;2023-09-19T09:33:25;17.70;99.90
14006;DHT22;7078;51.542;7.314;2023-09-19T09:35:56;17.60;99.90
14006;DHT22;7078;51.542;7.314;2023-09-19T09:38:26;17.80;99.90
14006;DHT22;7078;51.542;7.314;2023-09-19T09:40:58;17.90;99.90
14006;DHT22;7078;51.542;7.314;2023-09-19T09:43:38;17.80;99.90
14006;DHT22;7078;51.542;7.314;2023-09-19T09:46:15;17.90;99.90
14006;DHT22;7078;51.542;7.314;2023-09-19T09:48:58;17.90;99.90
14006;DHT22;7078;51.542;7.314;2023-09-19T09:51:50;18.00;99.90
14006;DHT22;7078;51.542;7.314;2023-09-19T09:54:28;18.10;99.90
14006;DHT22;7078;51.542;7.314;2023-09-19T09:57:07;18.00;99.90
14006;DHT22;7078;51.542;7.314;2023-09-19T09:59:50;17.90;99.90
14006;DHT22;7078;51.542;7.314;2023-09-19T10:04:58;17.80;99.90
14006;DHT22;7078;51.542;7.314;2023-09-19T10:07:51;17.80;99.90
14006;DHT22;7078;51.542;7.314;2023-09-19T10:10:37;17.80;99.90
14006;DHT22;7078;51.542;7.314;2023-09-19T10:13:07;17.90;99.90
14006;DHT22;7078;51.542;7.314;2023-09-19T10:15:38;18.00;99.90
14006;DHT22;7078;51.542;7.314;2023-09-19T10:18:07;18.10;99.90
14006;DHT22;7078;51.542;7.314;2023-09-19T10:20:36;18.10;99.90
14006;DHT22;7078;51.542;7.314;2023-09-19T10:23:12;18.00;99.90
14006;DHT22;7078;51.542;7.314;2023-09-19T10:25:43;18.00;99.90
14006;DHT22;7078;51.542;7.314;2023-09-19T10:28:13;18.10;99.90
14006;DHT22;7078;51.542;7.314;2023-09-19T10:30:46;18.20;99.90
14006;DHT22;7078;51.542;7.314;2023-09-19T10:33:23;18.50;99.90
14006;DHT22;7078;51.542;7.314;2023-09-19T10:35:51;18.70;99.90
14006;DHT22;7078;51.542;7.314;2023-09-19T10:38:18;18.70;99.90
14006;DHT22;7078;51.542;7.314;2023-09-19T10:40:49;18.80;99.90
14006;DHT22;7078;51.542;7.314;2023-09-19T10:43:17;18.80;99.90
14006;DHT22;7078;51.542;7.314;2023-09-19T10:45:47;18.90;99.90
14006;DHT22;7078;51.542;7.314;2023-09-19T10:48:18;19.10;99.90
14006;DHT22;7078;51.542;7.314;2023-09-19T10:50:50;19.20;97.10
14006;DHT22;7078;51.542;7.314;2023-09-19T10:53:18;19.30;95.60
14006;DHT22;7078;51.542;7.314;2023-09-19T10:55:50;19.10;95.50
14006;DHT22;7078;51.542;7.314;2023-09-19T10:58:29;19.00;95.60
14006;DHT22;7078;51.542;7.314;2023-09-19T11:01:00;19.00;96.20
14006;DHT22;7078;51.542;7.314;2023-09-19T11:03:40;18.90;96.40
14006;DHT22;7078;51.542;7.314;2023-09-19T11:06:17;18.80;96.10
14006;DHT22;7078;51.542;7.314;2023-09-19T11:09:00;18.80;94.70
14006;DHT22;7078;51.542;7.314;2023-09-19T11:11:49;18.80;96.80
14006;DHT22;7078;51.542;7.314;2023-09-19T11:30:33;19.60;90.50
14006;DHT22;7078;51.542;7.314;2023-09-19T11:36:11;19.80;89.70
14006;DHT22;7078;51.542;7.314;2023-09-19T11:43:46;19.70;87.60
14006;DHT22;7078;51.542;7.314;2023-09-19T11:46:12;19.60;88.30
14006;DHT22;7078;51.542;7.314;2023-09-19T11:48:43;19.60;90.60
14006;DHT22;7078;51.542;7.314;2023-09-19T11:51:11;19.60;90.40
14006;DHT22;7078;51.542;7.314;2023-09-19T11:53:48;19.50;90.00
14006;DHT22;7078;51.542;7.314;2023-09-19T11:56:19;19.60;90.10
14006;DHT22;7078;51.542;7.314;2023-09-19T11:58:46;19.70;91.60
14006;DHT22;7078;51.542;7.314;2023-09-19T12:01:21;19.90;89.80
14006;DHT22;7078;51.542;7.314;2023-09-19T12:03:47;19.70;88.70
14006;DHT22;7078;51.542;7.314;2023-09-19T12:06:18;19.50;90.50
14006;DHT22;7078;51.542;7.314;2023-09-19T12:08:44;19.70;91.40
14006;DHT22;7078;51.542;7.314;2023-09-19T12:11:16;19.80;87.80
14006;DHT22;7078;51.542;7.314;2023-09-19T12:13:43;20.00;89.50
14006;DHT22;7078;51.542;7.314;2023-09-19T12:18:41;19.90;84.80
14006;DHT22;7078;51.542;7.314;2023-09-19T12:21:25;19.90;85.90
14006;DHT22;7078;51.542;7.314;2023-09-19T12:24:06;19.80;84.90
14006;DHT22;7078;51.542;7.314;2023-09-19T12:26:39;19.80;86.00
14006;DHT22;7078;51.542;7.314;2023-09-19T12:29:13;20.00;85.70
14006;DHT22;7078;51.542;7.314;2023-09-19T12:31:58;19.90;85.90
14006;DHT22;7078;51.542;7.314;2023-09-19T12:34:26;19.80;86.20
14006;DHT22;7078;51.542;7.314;2023-09-19T12:37:12;19.80;84.50
14006;DHT22;7078;51.542;7.314;2023-09-19T12:39:43;19.90;83.50
14006;DHT22;7078;51.542;7.314;2023-09-19T12:42:20;19.80;82.40
14006;DHT22;7078;51.542;7.314;2023-09-19T12:44:50;19.90;81.80
14006;DHT22;7078;51.542;7.314;2023-09-19T12:47:22;20.10;81.10
14006;DHT22;7078;51.542;7.314;2023-09-19T12:50:13;20.20;81.40
14006;DHT22;7078;51.542;7.314;2023-09-19T12:52:52;20.30;82.80
14006;DHT22;7078;51.542;7.314;2023-09-19T12:55:23;20.30;81.40
14006;DHT22;7078;51.542;7.314;2023-09-19T12:58:00;20.20;80.80
14006;DHT22;7078;51.542;7.314;2023-09-19T13:00:44;20.20;80.20
14006;DHT22;7078;51.542;7.314;2023-09-19T13:03:25;20.20;77.30
14006;DHT22;7078;51.542;7.314;2023-09-19T13:05:53;20.40;78.20
14006;DHT22;7078;51.542;7.314;2023-09-19T13:08:32;20.40;76.50
14006;DHT22;7078;51.542;7.314;2023-09-19T13:13:47;20.50;74.60
14006;DHT22;7078;51.542;7.314;2023-09-19T13:16:21;20.40;73.00
14006;DHT22;7078;51.542;7.314;2023-09-19T13:18:52;20.50;72.70
14006;DHT22;7078;51.542;7.314;2023-09-19T13:21:34;20.60;74.60
14006;DHT22;7078;51.542;7.314;2023-09-19T13:24:21;20.50;72.50
14006;DHT22;7078;51.542;7.314;2023-09-19T13:26:48;20.40;74.20
14006;DHT22;7078;51.542;7.314;2023-09-19T13:29:14;20.30;72.40
14006;DHT22;7078;51.542;7.314;2023-09-19T13:31:46;20.40;74.40
14006;DHT22;7078;51.542;7.314;2023-09-19T13:34:11;20.50;74.50
14006;DHT22;7078;51.542;7.314;2023-09-19T13:36:39;20.60;73.20
14006;DHT22;7078;51.542;7.314;2023-09-19T13:39:05;20.60;73.00
14006;DHT22;7078;51.542;7.314;2023-09-19T13:41:31;20.50;72.70
14006;DHT22;7078;51.542;7.314;2023-09-19T13:43:57;20.40;74.80
14006;DHT22;7078;51.542;7.314;2023-09-19T13:46:23;20.50;74.30
14006;DHT22;7078;51.542;7.314;2023-09-19T13:48:52;20.50;73.90
14006;DHT22;7078;51.542;7.314;2023-09-19T13:51:20;20.50;74.60
14006;DHT22;7078;51.542;7.314;2023-09-19T13:53:48;20.60;75.50
14006;DHT22;7078;51.542;7.314;2023-09-19T13:56:14;20.80;74.50
14006;DHT22;7078;51.542;7.314;2023-09-19T13:58:40;20.80;73.00
14006;DHT22;7078;51.542;7.314;2023-09-19T14:01:07;21.00;74.90
14006;DHT22;7078;51.542;7.314;2023-09-19T14:03:39;21.00;73.90
14006;DHT22;7078;51.542;7.314;2023-09-19T14:06:05;20.80;72.30
14006;DHT22;7078;51.542;7.314;2023-09-19T14:08:30;20.60;73.00
14006;DHT22;7078;51.542;7.314;2023-09-19T14:10:56;20.50;74.50
14006;DHT22;7078;51.542;7.314;2023-09-19T14:13:21;20.40;75.10
14006;DHT22;7078;51.542;7.314;2023-09-19T14:15:47;20.30;76.10
14006;DHT22;7078;51.542;7.314;2023-09-19T14:18:13;20.30;77.30
14006;DHT22;7078;51.542;7.314;2023-09-19T14:20:39;20.40;77.20
14006;DHT22;7078;51.542;7.314;2023-09-19T14:23:07;20.40;78.50
14006;DHT22;7078;51.542;7.314;2023-09-19T14:25:36;20.50;77.50
14006;DHT22;7078;51.542;7.314;2023-09-19T14:28:02;20.40;77.50
14006;DHT22;7078;51.542;7.314;2023-09-19T14:30:28;20.30;77.70
14006;DHT22;7078;51.542;7.314;2023-09-19T14:32:53;20.30;78.60
14006;DHT22;7078;51.542;7.314;2023-09-19T14:35:19;20.10;77.90
14006;DHT22;7078;51.542;7.314;2023-09-19T14:37:44;20.00;79.60
14006;DHT22;7078;51.542;7.314;2023-09-19T14:40:11;19.80;80.90
14006;DHT22;7078;51.542;7.314;2023-09-19T14:42:39;20.00;81.10
14006;DHT22;7078;51.542;7.314;2023-09-19T14:45:05;20.00;81.70
14006;DHT22;7078;51.542;7.314;2023-09-19T14:47:32;20.00;81.70
14006;DHT22;7078;51.542;7.314;2023-09-19T14:50:00;19.90;81.70
14006;DHT22;7078;51.542;7.314;2023-09-19T14:52:26;19.80;81.80
14006;DHT22;7078;51.542;7.314;2023-09-19T14:54:54;19.80;83.10
14006;DHT22;7078;51.542;7.314;2023-09-19T14:57:20;19.80;83.10
14006;DHT22;7078;51.542;7.314;2023-09-19T14:59:45;19.80;85.30
14006;DHT22;7078;51.542;7.314;2023-09-19T15:02:11;19.80;85.80
14006;DHT22;7078;51.542;7.314;2023-09-19T15:04:36;19.80;85.10
14006;DHT22;7078;51.542;7.314;2023-09-19T15:07:03;19.80;85.00
14006;DHT22;7078;51.542;7.314;2023-09-19T15:09:29;19.70;85.30
14006;DHT22;7078;51.542;7.314;2023-09-19T15:11:57;19.60;85.60
14006;DHT22;7078;51.542;7.314;2023-09-19T15:14:23;19.60;87.30
14006;DHT22;7078;51.542;7.314;2023-09-19T15:16:50;19.60;88.10
14006;DHT22;7078;51.542;7.314;2023-09-19T15:19:16;19.60;87.60
14006;DHT22;7078;51.542;7.314;2023-09-19T15:21:43;19.60;88.50
14006;DHT22;7078;51.542;7.314;2023-09-19T15:24:08;19.60;88.40
14006;DHT22;7078;51.542;7.314;2023-09-19T15:26:35;19.60;88.50
14006;DHT22;7078;51.542;7.314;2023-09-19T15:29:07;19.60;89.00
14006;DHT22;7078;51.542;7.314;2023-09-19T15:31:33;19.50;88.60
14006;DHT22;7078;51.542;7.314;2023-09-19T15:34:01;19.40;89.70
14006;DHT22;7078;51.542;7.314;2023-09-19T15:36:27;19.40;90.70
14006;DHT22;7078;51.542;7.314;2023-09-19T15:39:03;19.30;91.10
14006;DHT22;7078;51.542;7.314;2023-09-19T15:41:35;19.30;92.00
14006;DHT22;7078;51.542;7.314;2023-09-19T15:44:03;19.20;91.60
14006;DHT22;7078;51.542;7.314;2023-09-19T15:46:33;19.20;92.30
14006;DHT22;7078;51.542;7.314;2023-09-19T15:49:02;19.20;91.90
14006;DHT22;7078;51.542;7.314;2023-09-19T15:51:28;19.30;91.70
14006;DHT22;7078;51.542;7.314;2023-09-19T15:53:55;19.50;91.50
14006;DHT22;7078;51.542;7.314;2023-09-19T15:56:22;19.50;90.80
14006;DHT22;7078;51.542;7.314;2023-09-19T15:58:53;19.60;91.20
14006;DHT22;7078;51.542;7.314;2023-09-19T16:01:19;19.70;90.50
14006;DHT22;7078;51.542;7.314;2023-09-19T16:03:50;19.70;90.20
14006;DHT22;7078;51.542;7.314;2023-09-19T16:06:19;19.70;90.30
14006;DHT22;7078;51.542;7.314;2023-09-19T16:08:46;19.80;90.30
14006;DHT22;7078;51.542;7.314;2023-09-19T16:11:13;19.70;90.40
14006;DHT22;7078;51.542;7.314;2023-09-19T16:13:39;19.70;90.70
14006;DHT22;7078;51.542;7.314;2023-09-19T16:16:08;19.60;90.90
14006;DHT22;7078;51.542;7.314;2023-09-19T16:18:44;19.50;90.50
14006;DHT22;7078;51.542;7.314;2023-09-19T16:21:10;19.40;90.90
14006;DHT22;7078;51.542;7.314;2023-09-19T16:23:36;19.30;90.70
14006;DHT22;7078;51.542;7.314;2023-09-19T16:26:06;19.20;91.20
14006;DHT22;7078;51.542;7.314;2023-09-19T16:28:32;19.20;91.60
14006;DHT22;7078;51.542;7.314;2023-09-19T16:31:00;19.10;92.10
14006;DHT22;7078;51.542;7.314;2023-09-19T16:33:26;19.10;92.30
14006;DHT22;7078;51.542;7.314;2023-09-19T16:35:52;19.10;93.20
14006;DHT22;7078;51.542;7.314;2023-09-19T16:38:18;19.10;94.30
14006;DHT22;7078;51.542;7.314;2023-09-19T16:40:57;19.00;93.50